createdAt,value
2022-11-21T00:03:07.288Z,10.43
2022-11-21T00:08:10.824Z,10.23
2022-11-21T00:13:19.283Z,12.05
2022-11-21T00:18:20.684Z,11.10
2022-11-21T00:23:22.047Z,9.95
2022-11-21T00:28:23.500Z,8.77
2022-11-21T00:33:25.047Z,9.00
2022-11-21T00:38:27.510Z,7.40
2022-11-21T00:43:28.905Z,9.17
2022-11-21T00:48:31.437Z,10.35
2022-11-21T00:53:32.852Z,10.13
2022-11-21T00:58:35.000Z,10.30
2022-11-21T01:03:36.827Z,9.27
2022-11-21T01:08:40.763Z,8.50
2022-11-21T01:13:42.760Z,9.05
2022-11-21T01:18:44.840Z,10.13
2022-11-21T01:23:46.725Z,10.02
2022-11-21T01:28:48.856Z,10.05
2022-11-21T01:33:50.782Z,9.65
2022-11-21T01:38:54.387Z,10.05
2022-11-21T01:43:55.764Z,9.60
2022-11-21T01:49:04.860Z,9.48
2022-11-21T01:54:11.259Z,9.27
2022-11-21T01:59:20.529Z,8.02
2022-11-21T02:04:24.142Z,7.07
2022-11-21T02:09:25.950Z,4.32
2022-11-21T02:14:28.124Z,3.85
2022-11-21T02:19:40.696Z,3.70
2022-11-21T02:25:11.963Z,3.70
2022-11-21T02:30:13.507Z,3.60
2022-11-21T02:35:17.734Z,7.25
2022-11-21T02:40:25.402Z,3.13
2022-11-21T02:45:40.018Z,2.78
2022-11-21T02:50:43.686Z,3.20
2022-11-21T02:55:45.740Z,2.95
2022-11-21T03:00:47.234Z,2.22
2022-11-21T03:05:48.903Z,2.78
2022-11-21T03:10:50.285Z,2.40
2022-11-21T03:15:52.007Z,2.00
2022-11-21T03:20:53.374Z,1.88
2022-11-21T03:25:54.734Z,1.80
2022-11-21T03:30:56.138Z,1.77
2022-11-21T03:35:57.514Z,1.67
2022-11-21T03:41:03.613Z,0.88
2022-11-21T03:46:05.043Z,1.83
2022-11-21T03:51:06.407Z,0.90
2022-11-21T03:56:07.788Z,1.00
2022-11-21T04:01:09.559Z,0.93
2022-11-21T04:06:12.928Z,1.10
2022-11-21T04:11:14.411Z,0.82
2022-11-21T04:16:15.802Z,0.80
2022-11-21T04:21:17.202Z,0.90
2022-11-21T04:26:18.566Z,0.82
2022-11-21T04:31:19.967Z,0.85
2022-11-21T04:36:21.331Z,1.10
2022-11-21T04:41:22.712Z,0.70
2022-11-21T04:46:24.187Z,0.98
2022-11-21T04:51:25.574Z,0.90
2022-11-21T04:56:26.947Z,0.80
2022-11-21T05:01:28.391Z,0.85
2022-11-21T05:06:29.982Z,0.70
2022-11-21T05:11:50.078Z,0.80
2022-11-21T05:16:52.407Z,0.88
2022-11-21T05:21:53.813Z,1.03
2022-11-21T05:26:55.347Z,1.10
2022-11-21T05:31:56.763Z,2.17
2022-11-21T05:36:58.874Z,1.30
2022-11-21T05:42:03.192Z,1.52
2022-11-21T05:47:04.887Z,1.73
2022-11-21T05:52:06.282Z,1.52
2022-11-21T05:57:07.682Z,2.33
2022-11-21T06:02:27.743Z,4.57
2022-11-21T06:07:29.231Z,5.47
2022-11-21T06:12:31.484Z,10.52
2022-11-21T06:17:32.890Z,17.42
2022-11-21T06:22:34.287Z,18.40
2022-11-21T06:27:35.662Z,5.50
2022-11-21T06:32:37.733Z,5.65
2022-11-21T06:37:39.139Z,3.30
2022-11-21T06:42:40.539Z,4.43
2022-11-21T06:47:41.935Z,5.75
2022-11-21T06:52:43.359Z,3.97
2022-11-21T06:57:44.763Z,7.53
2022-11-21T07:02:46.558Z,4.60
2022-11-21T07:07:47.991Z,4.70
2022-11-21T07:13:08.243Z,5.90
2022-11-21T07:18:09.608Z,7.43
2022-11-21T07:23:11.522Z,7.63
2022-11-21T07:28:12.897Z,10.07
2022-11-21T07:33:14.394Z,11.48
2022-11-21T07:38:15.823Z,10.98
2022-11-21T07:43:17.898Z,13.05
2022-11-21T07:48:19.298Z,16.13
2022-11-21T07:53:20.796Z,13.27
2022-11-21T07:58:22.699Z,12.65
2022-11-21T08:03:25.191Z,15.77
2022-11-21T08:08:26.623Z,15.57
2022-11-21T08:13:28.940Z,16.02
2022-11-21T08:18:30.369Z,14.10
2022-11-21T08:23:32.256Z,19.80
2022-11-21T08:28:33.928Z,15.07
2022-11-21T08:33:40.492Z,11.80
2022-11-21T08:38:41.893Z,17.80
2022-11-21T08:43:43.618Z,13.77
2022-11-21T08:48:45.070Z,13.05
2022-11-21T08:53:46.509Z,14.20
2022-11-21T08:58:47.929Z,15.57
2022-11-21T09:03:49.322Z,13.38
2022-11-21T09:08:50.793Z,13.15
2022-11-21T09:14:12.335Z,15.13
2022-11-21T09:19:13.810Z,15.45
2022-11-21T09:24:15.522Z,13.73
2022-11-21T09:29:16.968Z,13.77
2022-11-21T09:34:19.456Z,14.27
2022-11-21T09:39:21.589Z,11.47
2022-11-21T09:44:50.039Z,23.15
2022-11-21T09:50:01.793Z,11.35
2022-11-21T09:55:07.977Z,10.07
2022-11-21T10:00:19.526Z,12.10
2022-11-21T10:05:38.606Z,14.32
2022-11-21T10:11:16.139Z,14.77
2022-11-21T10:16:34.062Z,13.48
2022-11-21T10:21:50.291Z,15.15
2022-11-21T10:27:00.211Z,12.98
2022-11-21T10:32:11.311Z,14.77
2022-11-21T10:37:31.488Z,15.68
2022-11-21T10:42:48.560Z,15.02
2022-11-21T10:47:52.046Z,14.30
2022-11-21T10:53:27.699Z,13.85
2022-11-21T10:58:56.052Z,13.68
2022-11-21T11:04:41.674Z,13.90
2022-11-21T11:09:38.646Z,23.95
2022-11-21T11:14:40.252Z,15.27
2022-11-21T11:20:05.346Z,16.50
2022-11-21T11:25:09.645Z,16.33
2022-11-21T11:30:15.843Z,17.15
2022-11-21T11:35:17.206Z,18.08
2022-11-21T11:40:35.963Z,17.90
2022-11-21T11:46:05.002Z,18.33
2022-11-21T11:51:32.338Z,19.02
2022-11-21T11:56:38.194Z,19.63
2022-11-21T12:01:44.829Z,21.27
2022-11-21T12:07:52.736Z,17.52
2022-11-21T12:12:23.487Z,17.60
2022-11-21T12:17:55.855Z,17.73
2022-11-21T12:22:57.486Z,18.08
2022-11-21T12:27:59.667Z,16.45
2022-11-21T12:33:20.490Z,16.08
2022-11-21T12:38:44.921Z,18.00
2022-11-21T12:43:58.322Z,18.83
2022-11-21T12:49:40.544Z,18.15
2022-11-21T12:55:17.960Z,17.45
2022-11-21T13:00:27.753Z,17.10
2022-11-21T13:05:32.625Z,16.98
2022-11-21T13:10:34.214Z,16.77
2022-11-21T13:15:56.820Z,16.58
2022-11-21T13:20:59.343Z,18.40
2022-11-21T13:26:00.803Z,17.35
2022-11-21T13:31:05.654Z,17.10
2022-11-21T13:36:11.650Z,19.42
2022-11-21T13:41:54.471Z,17.58
2022-11-21T13:47:00.328Z,17.20
2022-11-21T13:52:11.259Z,16.05
2022-11-21T13:57:26.673Z,17.35
2022-11-21T14:03:04.178Z,16.55
2022-11-21T14:08:21.629Z,16.60
2022-11-21T14:13:27.993Z,15.68
2022-11-21T14:18:30.255Z,15.88
2022-11-21T14:23:34.209Z,18.93
2022-11-21T14:28:35.670Z,17.05
2022-11-21T14:33:44.666Z,17.35
2022-11-21T14:44:20.361Z,18.67
2022-11-21T14:49:24.543Z,19.42
2022-11-21T14:54:29.707Z,20.70
2022-11-21T14:59:35.978Z,21.90
2022-11-21T15:04:37.579Z,20.85
2022-11-21T15:10:30.525Z,21.00
2022-11-21T15:15:06.324Z,21.85
2022-11-21T16:43:16.939Z,21.70
2022-11-21T16:48:45.076Z,21.98
2022-11-21T16:53:48.298Z,21.77
2022-11-21T16:58:49.759Z,21.02
2022-11-21T17:03:52.024Z,20.55
2022-11-21T17:08:53.394Z,22.03
2022-11-21T17:13:56.065Z,21.63
2022-11-21T17:44:38.865Z,22.85
2022-11-21T17:49:40.267Z,21.70
2022-11-21T17:54:41.688Z,26.23
2022-11-21T17:59:44.887Z,27.80
2022-11-21T18:09:48.638Z,22.38
2022-11-21T18:14:50.020Z,23.35
2022-11-21T18:19:51.479Z,21.02
2022-11-21T18:24:52.868Z,22.48
2022-11-21T18:29:54.236Z,21.88
2022-11-21T18:34:55.671Z,20.48
2022-11-21T18:39:57.035Z,21.83
2022-11-21T18:44:58.652Z,19.10
2022-11-21T18:50:00.134Z,15.68
2022-11-21T18:55:01.554Z,14.25
2022-11-21T19:00:04.638Z,14.88
2022-11-21T19:05:06.311Z,13.70
2022-11-21T19:10:35.698Z,13.73
2022-11-21T19:35:51.698Z,10.32
2022-11-21T21:51:31.967Z,8.20
2022-11-21T21:56:34.004Z,7.05
2022-11-21T22:01:35.418Z,7.82
2022-11-21T22:06:36.835Z,7.22
2022-11-21T22:11:38.831Z,8.52
2022-11-21T22:16:41.419Z,7.15
2022-11-21T22:21:42.808Z,7.97
2022-11-21T22:26:45.730Z,7.72
2022-11-21T22:31:47.170Z,7.97
2022-11-21T22:36:48.771Z,8.65
2022-11-21T22:41:50.183Z,9.20
2022-11-21T22:46:51.552Z,9.68
2022-11-21T22:51:52.928Z,10.27
2022-11-21T23:06:18.615Z,11.95
2022-11-21T23:11:22.795Z,12.20
2022-11-21T23:16:25.500Z,11.90
2022-11-21T23:21:26.903Z,10.90
2022-11-21T23:26:28.303Z,11.95
2022-11-21T23:31:29.838Z,10.82
2022-11-21T23:36:32.517Z,10.90
2022-11-21T23:41:34.044Z,10.98
2022-11-21T23:46:35.615Z,11.63
2022-11-21T23:51:37.030Z,11.50
2022-11-21T23:56:38.490Z,11.77
